Killingly, Connecticut
Current Conditions -  °F | °C
As of 2:52 PM on Friday 28 Nov 2014 (Local Time) from KIJD Reporting Station
Clear Clear  
Wind Chill: 26°   Ceiling: Unl
Heat Index: 35°   Visibility: 10mi
Dew Point: 15°   Wind: 13mph
Humidity: 44%   Direction: 320°NW
Pressure: 30.11"   Gusts: 20mph
Location:  41.7938°N, 71.8615°W
Report Text: KIJD 281952Z AUTO 32011G17KT 10SM CLR 02/M09 A3011 RMK AO2 SLP197 T00171094
Loading
Personal Weather Stations






























Interactive Weather Map New forecast layout! Learn more

10-Day Weather Forecast

Advertisements
Track Severe Weather on mobile